Time;durP1;ratioP1;P1;durP2;ratioP2;P2;SDS_P1;SDS_P2;PMS_P1;PMS_P2;Temp;Humidity;BMP_temperature;BMP_pressure;BME280_temperature;BME280_humidity;BME280_pressure;Samples;Min_cycle;Max_cycle;Signal;HPM_P1;HPM_P2
2022/08/25 00:01:48;;;;;;;3.28;1.90;;;;;;;18.65;88.37;95989.25;4955395;29;24430;-76
2022/08/25 00:04:16;;;;;;;4.20;2.13;;;;;;;18.64;88.60;95985.81;4965408;28;24454;-76
2022/08/25 00:06:44;;;;;;;2.90;1.80;;;;;;;18.69;88.39;95980.13;4955946;28;24434;-76
2022/08/25 00:09:12;;;;;;;3.03;2.03;;;;;;;18.74;87.62;95978.78;4949699;28;24446;-76
2022/08/25 00:11:40;;;;;;;2.33;2.00;;;;;;;18.72;87.36;95978.09;4949996;28;24442;-76
2022/08/25 00:14:11;;;;;;;3.28;2.20;;;;;;;18.69;87.53;95973.13;4954070;28;24833;-77
2022/08/25 00:16:38;;;;;;;3.40;1.90;;;;;;;18.65;89.00;95970.91;4954010;28;24441;-76
2022/08/25 00:19:07;;;;;;;2.97;2.30;;;;;;;18.67;88.35;95964.56;4950548;28;24447;-77
2022/08/25 00:21:34;;;;;;;3.63;2.43;;;;;;;18.68;87.73;95966.19;4952136;28;24430;-76
2022/08/25 00:24:02;;;;;;;2.85;2.22;;;;;;;18.67;87.88;95968.97;4952703;28;24461;-77
2022/08/25 00:26:29;;;;;;;3.92;2.20;;;;;;;18.72;87.75;95969.41;4958702;28;25050;-77
2022/08/25 00:28:57;;;;;;;2.83;2.40;;;;;;;18.73;86.13;95973.69;4949708;28;24802;-77
2022/08/25 00:31:23;;;;;;;1.95;1.75;;;;;;;18.57;87.23;95976.84;4952254;28;24458;-77
2022/08/25 00:33:51;;;;;;;1.90;1.80;;;;;;;18.43;87.52;95965.03;4949840;28;24806;-76
2022/08/25 00:36:19;;;;;;;2.10;1.80;;;;;;;18.42;87.79;95973.84;4952498;28;24437;-76
2022/08/25 00:38:48;;;;;;;2.08;1.60;;;;;;;18.41;87.82;95972.19;4949850;28;24494;-77
2022/08/25 00:41:18;;;;;;;2.22;1.83;;;;;;;18.10;89.81;95977.59;4952723;28;24433;-77
2022/08/25 00:43:48;;;;;;;2.10;1.90;;;;;;;18.14;89.89;95984.22;4949589;28;24460;-77
2022/08/25 00:46:18;;;;;;;2.22;1.85;;;;;;;18.07;90.98;95984.88;4952734;28;24442;-76
2022/08/25 00:48:49;;;;;;;2.00;1.80;;;;;;;18.04;90.65;95977.31;4950340;28;24446;-77
2022/08/25 00:51:23;;;;;;;2.33;1.80;;;;;;;18.03;90.99;95983.50;4953132;28;24841;-76
2022/08/25 00:53:50;;;;;;;3.83;2.38;;;;;;;18.08;91.16;95986.53;4950617;28;24441;-77
2022/08/25 00:56:17;;;;;;;2.30;2.10;;;;;;;18.05;90.88;95984.19;4953504;28;24441;-77
2022/08/25 00:58:44;;;;;;;2.78;2.22;;;;;;;18.04;91.32;95977.31;4950565;28;24483;-77
2022/08/25 01:01:10;;;;;;;2.90;1.90;;;;;;;18.03;91.52;95962.53;4953150;28;24445;-76
2022/08/25 01:03:38;;;;;;;2.28;2.08;;;;;;;17.98;91.93;95967.34;4951015;28;24461;-76
2022/08/25 01:06:05;;;;;;;3.90;2.10;;;;;;;17.95;92.31;95963.22;4958263;28;24442;-77
2022/08/25 01:08:33;;;;;;;3.83;2.08;;;;;;;18.03;91.54;95966.00;4945692;28;25047;-76
2022/08/25 01:11:03;;;;;;;3.50;2.30;;;;;;;17.94;93.35;95961.56;4953371;28;24501;-77
2022/08/25 01:13:33;;;;;;;2.40;2.20;;;;;;;17.84;93.88;95966.81;4946335;28;24434;-76
2022/08/25 01:16:01;;;;;;;2.42;2.22;;;;;;;17.88;92.28;95965.56;4948214;29;24841;-77
2022/08/25 01:18:28;;;;;;;4.80;2.13;;;;;;;17.77;93.76;95957.84;4946375;28;24526;-76
2022/08/25 01:20:58;;;;;;;2.33;2.13;;;;;;;17.73;92.77;95966.06;4952602;29;24444;-77
2022/08/25 01:23:25;;;;;;;2.90;2.10;;;;;;;17.69;92.66;95967.28;4946954;28;24532;-77
2022/08/25 01:25:56;;;;;;;9.02;2.42;;;;;;;17.63;93.24;95972.09;4952436;29;24481;-76
2022/08/25 01:28:23;;;;;;;2.45;1.90;;;;;;;17.54;93.59;95964.22;4947630;28;24443;-76
2022/08/25 01:30:49;;;;;;;3.17;2.25;;;;;;;17.55;92.01;95971.94;4951859;29;24449;-77
2022/08/25 01:33:16;;;;;;;2.33;1.88;;;;;;;17.42;92.22;95973.97;4948223;28;24442;-77
2022/08/25 01:35:43;;;;;;;3.30;1.90;;;;;;;17.48;91.17;95970.00;4952985;28;25024;-76
2022/08/25 01:38:11;;;;;;;3.00;2.10;;;;;;;17.46;92.47;95977.97;4947938;28;24453;-77
2022/08/25 01:40:40;;;;;;;3.45;2.08;;;;;;;17.17;95.18;95970.06;4943157;28;24845;-76
2022/08/25 01:43:12;;;;;;;4.93;1.90;;;;;;;17.03;96.81;95967.78;4948171;28;24446;-76
2022/08/25 01:45:40;;;;;;;2.55;1.92;;;;;;;17.10;96.29;95968.91;4950713;28;24461;-77
2022/08/25 01:48:08;;;;;;;2.45;2.25;;;;;;;17.09;96.27;95973.31;4947860;28;24502;-76
2022/08/25 01:50:35;;;;;;;2.40;2.10;;;;;;;17.12;97.19;95972.22;4950387;28;24449;-76
2022/08/25 01:53:06;;;;;;;3.13;2.00;;;;;;;17.22;96.84;95977.50;4948427;28;24809;-76
2022/08/25 01:55:50;;;;;;;3.10;2.15;;;;;;;17.27;95.34;95976.13;4950152;28;24481;-77
2022/08/25 01:58:17;;;;;;;2.20;2.00;;;;;;;17.27;96.03;95972.69;4952077;28;24453;-76
2022/08/25 02:00:49;;;;;;;2.42;2.22;;;;;;;17.26;98.12;95974.47;4951044;29;24437;-77
2022/08/25 02:03:17;;;;;;;3.50;2.20;;;;;;;17.28;97.51;95974.34;4948262;28;24430;-77
2022/08/25 02:05:43;;;;;;;2.40;2.20;;;;;;;17.16;98.90;95979.66;4951051;29;25062;-76
2022/08/25 02:08:10;;;;;;;2.55;2.35;;;;;;;17.15;99.57;95983.25;4948519;28;24501;-76
2022/08/25 02:10:39;;;;;;;4.88;2.55;;;;;;;17.16;99.29;95977.06;4951202;28;24493;-77
2022/08/25 02:13:07;;;;;;;3.33;2.40;;;;;;;17.22;99.08;95972.28;4950590;28;24453;-77
2022/08/25 02:15:35;;;;;;;2.85;2.58;;;;;;;17.30;98.55;95972.44;4951918;28;24438;-76
2022/08/25 02:18:02;;;;;;;2.70;2.50;;;;;;;17.33;98.23;95973.00;4948355;28;24473;-77
2022/08/25 02:20:28;;;;;;;2.47;2.28;;;;;;;17.38;96.31;95964.72;4952272;28;24443;-76
2022/08/25 02:22:55;;;;;;;2.78;2.00;;;;;;;17.27;95.48;95972.69;4948738;28;24441;-76
2022/08/25 02:25:22;;;;;;;2.58;2.38;;;;;;;17.18;93.96;95969.91;4951104;28;24458;-76
2022/08/25 02:27:50;;;;;;;2.17;1.95;;;;;;;16.97;96.36;95968.28;4944836;28;24442;-76
2022/08/25 02:30:17;;;;;;;2.33;2.13;;;;;;;16.83;96.15;95959.81;4952204;28;24442;-76
2022/08/25 02:32:44;;;;;;;2.22;1.90;;;;;;;16.72;96.83;95961.66;4948530;28;24449;-77
2022/08/25 02:35:11;;;;;;;2.57;2.27;;;;;;;16.69;97.04;95954.91;4951700;28;24601;-77
2022/08/25 02:37:37;;;;;;;2.97;2.22;;;;;;;16.68;97.80;95956.69;4948564;28;24477;-76
2022/08/25 02:40:06;;;;;;;2.30;2.10;;;;;;;16.66;98.39;95965.63;4951179;28;24438;-77
2022/08/25 02:42:33;;;;;;;5.60;2.20;;;;;;;16.59;100.00;95956.66;4943960;28;24434;-77
2022/08/25 02:45:01;;;;;;;2.40;2.20;;;;;;;16.56;100.00;95962.94;4951612;28;24465;-76
2022/08/25 02:47:28;;;;;;;3.90;2.30;;;;;;;16.58;100.00;95965.47;4948933;28;24445;-76
2022/08/25 02:49:55;;;;;;;2.65;2.42;;;;;;;16.65;100.00;95959.59;4945397;29;24976;-76
2022/08/25 02:52:21;;;;;;;2.97;2.05;;;;;;;16.72;100.00;95959.88;4948826;28;24438;-76
2022/08/25 02:54:48;;;;;;;3.00;2.70;;;;;;;16.76;100.00;95966.56;4952083;28;24441;-76
2022/08/25 02:57:14;;;;;;;3.17;2.42;;;;;;;16.72;100.00;95962.47;4956163;28;24425;-76
2022/08/25 02:59:41;;;;;;;2.75;2.50;;;;;;;16.68;100.00;95964.53;4965954;28;24426;-76
2022/08/25 03:02:09;;;;;;;2.40;2.20;;;;;;;16.69;100.00;95962.75;4961148;28;24430;-76
2022/08/25 03:04:35;;;;;;;3.95;2.30;;;;;;;16.65;100.00;95964.81;4951050;28;24521;-76
2022/08/25 03:07:02;;;;;;;2.67;2.05;;;;;;;16.64;100.00;95964.91;4956471;29;24501;-76
2022/08/25 03:09:29;;;;;;;5.10;2.30;;;;;;;16.66;100.00;95963.03;4954319;28;24441;-76
2022/08/25 03:11:55;;;;;;;3.80;2.45;;;;;;;16.66;100.00;95960.41;4952328;29;24442;-77
2022/08/25 03:14:21;;;;;;;2.70;2.50;;;;;;;16.64;100.00;95963.13;4954883;28;24426;-76
2022/08/25 03:16:48;;;;;;;4.05;2.67;;;;;;;16.64;100.00;95957.91;4948833;29;24441;-75
2022/08/25 03:19:16;;;;;;;2.85;2.53;;;;;;;16.64;100.00;95955.28;4955137;28;24453;-75
2022/08/25 03:21:44;;;;;;;2.90;2.60;;;;;;;16.61;100.00;95957.31;4952915;28;24447;-76
2022/08/25 03:24:11;;;;;;;3.42;2.40;;;;;;;16.61;100.00;95952.94;4955318;28;26365;-75
2022/08/25 03:26:52;;;;;;;2.80;2.20;;;;;;;16.57;100.00;95948.91;4951466;28;24443;-76
2022/08/25 03:29:19;;;;;;;2.88;2.50;;;;;;;16.51;100.00;95956.47;4955160;28;24856;-77
2022/08/25 03:31:46;;;;;;;2.55;2.05;;;;;;;16.57;97.08;95946.28;4952061;29;24443;-76
2022/08/25 03:34:15;;;;;;;2.90;2.20;;;;;;;16.29;97.54;95946.97;4954941;28;24494;-76
2022/08/25 03:36:44;;;;;;;2.53;2.08;;;;;;;16.07;100.00;95937.44;4948045;28;24435;-75
2022/08/25 03:39:10;;;;;;;2.40;2.20;;;;;;;16.13;98.44;95942.16;4954763;28;24438;-76
2022/08/25 03:41:37;;;;;;;2.53;2.20;;;;;;;16.13;99.03;95937.78;4950778;28;24526;-76
2022/08/25 03:44:06;;;;;;;2.55;2.35;;;;;;;15.91;100.00;95937.88;4949191;28;24441;-77
2022/08/25 03:46:35;;;;;;;2.33;2.13;;;;;;;15.92;100.00;95931.69;4952704;28;24477;-75
2022/08/25 03:49:03;;;;;;;4.45;2.83;;;;;;;15.93;100.00;95926.31;4954445;28;24445;-76
2022/08/25 03:51:32;;;;;;;2.47;2.28;;;;;;;15.96;100.00;95925.25;4957290;28;24838;-76
2022/08/25 03:54:01;;;;;;;2.50;2.30;;;;;;;15.96;100.00;95920.03;4954430;28;24473;-76
2022/08/25 03:56:28;;;;;;;2.40;2.20;;;;;;;15.95;100.00;95918.38;4950061;28;24433;-74
2022/08/25 03:58:55;;;;;;;3.88;2.88;;;;;;;15.93;100.00;95920.28;4954026;28;24442;-74
2022/08/25 04:01:21;;;;;;;3.03;2.40;;;;;;;15.97;100.00;95924.28;4951249;29;24801;-77
2022/08/25 04:03:48;;;;;;;7.07;2.80;;;;;;;15.99;100.00;95929.41;4953921;29;24433;-76
2022/08/25 04:06:19;;;;;;;3.93;2.83;;;;;;;16.04;100.00;95932.47;4952941;28;24849;-76
2022/08/25 04:08:47;;;;;;;3.00;2.20;;;;;;;16.10;100.00;95940.63;4953812;28;24450;-77
2022/08/25 04:11:17;;;;;;;3.73;2.73;;;;;;;16.14;100.00;95943.81;4951786;28;24430;-76
2022/08/25 04:13:45;;;;;;;5.90;2.53;;;;;;;16.20;100.00;95940.69;4951386;29;24430;-76
2022/08/25 04:16:13;;;;;;;2.70;2.50;;;;;;;16.15;100.00;95937.63;4952241;28;24442;-76
2022/08/25 04:18:40;;;;;;;3.17;2.38;;;;;;;16.07;100.00;95938.28;4952211;28;24454;-74
2022/08/25 04:21:08;;;;;;;4.47;2.63;;;;;;;16.06;100.00;95939.22;4953446;28;24445;-75
2022/08/25 04:23:36;;;;;;;3.10;2.53;;;;;;;16.01;100.00;95941.38;4951508;28;24505;-74
2022/08/25 04:26:07;;;;;;;3.05;2.70;;;;;;;16.00;100.00;95941.50;4953035;28;25027;-75
2022/08/25 04:28:35;;;;;;;3.35;2.70;;;;;;;16.06;100.00;95943.63;4952837;28;25011;-74
2022/08/25 04:31:01;;;;;;;3.88;2.78;;;;;;;16.13;100.00;95942.16;4947243;28;25056;-74
2022/08/25 04:33:28;;;;;;;4.55;2.58;;;;;;;16.14;100.00;95939.44;4949540;28;24434;-75
2022/08/25 04:35:54;;;;;;;2.97;2.63;;;;;;;16.22;100.00;95944.03;4947397;29;24567;-74
2022/08/25 04:38:21;;;;;;;3.42;2.50;;;;;;;16.09;100.00;95941.59;4952483;28;24448;-74
2022/08/25 04:40:55;;;;;;;2.67;2.10;;;;;;;15.96;99.55;95948.78;4951271;28;24449;-73
2022/08/25 04:43:22;;;;;;;4.63;2.40;;;;;;;15.83;100.00;95943.69;4953565;28;24438;-74
2022/08/25 04:45:50;;;;;;;2.72;2.38;;;;;;;15.80;100.00;95946.56;4953391;28;24453;-75
2022/08/25 04:48:16;;;;;;;3.13;2.20;;;;;;;15.90;100.00;95950.06;4946802;28;24442;-74
2022/08/25 04:50:43;;;;;;;4.43;2.35;;;;;;;15.99;100.00;95948.53;4950372;28;24441;-75
2022/08/25 04:53:09;;;;;;;6.38;2.50;;;;;;;15.80;100.00;95945.75;4952201;28;24449;-75
2022/08/25 04:55:40;;;;;;;3.15;2.15;;;;;;;15.64;100.00;95951.31;4952480;28;25073;-75
2022/08/25 04:58:06;;;;;;;5.20;2.25;;;;;;;15.56;100.00;95938.88;4952349;28;24489;-74
2022/08/25 05:00:34;;;;;;;2.70;2.07;;;;;;;15.56;100.00;95935.44;4952217;28;24463;-75
2022/08/25 05:03:02;;;;;;;5.22;2.75;;;;;;;15.69;100.00;95925.72;4952023;28;25067;-75
2022/08/25 05:05:29;;;;;;;4.63;2.75;;;;;;;15.70;100.00;95920.38;4952972;28;25018;-74
2022/08/25 05:07:55;;;;;;;4.90;3.17;;;;;;;15.65;100.00;95925.13;4960098;28;24459;-75
2022/08/25 05:10:21;;;;;;;3.17;2.88;;;;;;;15.54;100.00;95922.53;4952159;28;24445;-74
2022/08/25 05:12:48;;;;;;;5.53;2.85;;;;;;;15.54;100.00;95922.53;4953246;28;24441;-74
2022/08/25 05:17:58;;;;;;;4.35;2.63;;;;;;;15.82;100.00;95933.38;4947545;28;24489;-74
2022/08/25 05:20:26;;;;;;;3.17;2.75;;;;;;;15.99;100.00;95929.41;4954675;28;24437;-74
2022/08/25 05:22:53;;;;;;;3.88;2.90;;;;;;;16.21;100.00;95929.31;4951151;28;24441;-74
2022/08/25 05:25:19;;;;;;;3.35;2.90;;;;;;;16.39;100.00;95921.72;4944728;28;24945;-74
2022/08/25 05:27:46;;;;;;;4.45;2.80;;;;;;;16.56;100.00;95928.13;4952858;28;24805;-74
2022/08/25 05:30:12;;;;;;;4.70;2.50;;;;;;;16.64;100.00;95926.53;4951729;28;24804;-75
2022/08/25 05:32:38;;;;;;;6.00;2.80;;;;;;;16.86;100.00;95927.34;4960763;28;25002;-74
2022/08/25 05:35:07;;;;;;;4.28;2.70;;;;;;;16.83;100.00;95919.75;4965225;28;25192;-74
2022/08/25 05:37:35;;;;;;;6.03;3.00;;;;;;;16.90;100.00;95923.50;4949960;28;24449;-75
2022/08/25 05:40:01;;;;;;;5.70;3.10;;;;;;;16.95;100.00;95923.13;4950526;29;25091;-74
2022/08/25 05:42:28;;;;;;;5.07;3.13;;;;;;;16.95;100.00;95923.97;4951293;28;24446;-75
2022/08/25 05:44:54;;;;;;;4.13;3.10;;;;;;;17.05;100.00;95926.59;4946234;29;24469;-76
2022/08/25 05:47:21;;;;;;;8.48;2.80;;;;;;;17.06;100.00;95936.94;4951974;28;24461;-75
2022/08/25 05:49:47;;;;;;;4.70;3.17;;;;;;;17.02;100.00;95942.56;4945641;29;24497;-75
2022/08/25 05:52:14;;;;;;;3.30;2.67;;;;;;;17.00;100.00;95937.47;4951793;28;24442;-74
2022/08/25 05:54:42;;;;;;;4.32;2.63;;;;;;;16.93;100.00;95937.16;4952865;28;24441;-76
2022/08/25 05:57:09;;;;;;;4.03;3.22;;;;;;;17.14;100.00;95931.06;4955693;28;24445;-73
2022/08/25 05:59:35;;;;;;;5.82;3.05;;;;;;;17.32;100.00;95932.06;4953677;28;24465;-73
2022/08/25 06:04:46;;;;;;;3.22;2.92;;;;;;;17.38;99.11;95920.22;4956155;29;24966;-73
2022/08/25 06:07:12;;;;;;;6.95;3.40;;;;;;;17.44;99.56;95927.56;4944418;28;24438;-73
2022/08/25 06:09:40;;;;;;;3.42;3.13;;;;;;;17.47;100.00;95924.66;4949983;28;24433;-74
2022/08/25 06:12:08;;;;;;;5.22;3.10;;;;;;;17.69;99.84;95930.59;4951951;28;24485;-74
2022/08/25 06:14:35;;;;;;;3.05;2.75;;;;;;;17.90;99.37;95923.50;4951902;28;24441;-74
2022/08/25 06:17:01;;;;;;;3.90;3.50;;;;;;;17.99;96.62;95927.09;4951972;28;24531;-73
2022/08/25 06:19:28;;;;;;;4.68;3.42;;;;;;;17.99;97.32;95917.44;4949757;28;24968;-74
2022/08/25 06:21:55;;;;;;;8.38;3.38;;;;;;;18.19;96.47;95914.81;4945359;28;24437;-74
2022/08/25 06:24:21;;;;;;;3.67;3.30;;;;;;;18.29;96.54;95916.44;4951639;28;24512;-73
2022/08/25 06:26:48;;;;;;;6.60;3.50;;;;;;;18.31;95.42;95925.00;4952115;28;25016;-74
2022/08/25 06:29:15;;;;;;;5.57;3.60;;;;;;;18.26;96.16;95919.34;4952223;28;24470;-74
2022/08/25 06:31:43;;;;;;;4.30;3.30;;;;;;;18.52;95.84;95924.00;4952099;28;24485;-74
2022/08/25 06:34:10;;;;;;;3.33;3.08;;;;;;;18.78;94.73;95921.63;4951076;28;24449;-73
2022/08/25 06:36:36;;;;;;;4.70;3.42;;;;;;;19.09;93.05;95919.56;4944117;28;24488;-74
2022/08/25 06:39:03;;;;;;;3.50;3.20;;;;;;;19.20;90.81;95922.00;4946784;29;24838;-74
2022/08/25 06:41:30;;;;;;;4.35;3.38;;;;;;;19.45;90.46;95920.47;4944419;28;24450;-74
2022/08/25 06:43:57;;;;;;;5.35;3.78;;;;;;;19.72;88.55;95921.44;4946063;29;24458;-74
2022/08/25 06:46:28;;;;;;;3.90;3.22;;;;;;;19.96;88.50;95913.81;4961799;28;24517;-75
2022/08/25 06:48:55;;;;;;;6.05;3.75;;;;;;;20.23;87.94;95909.41;4951686;28;25020;-75
2022/08/25 06:51:24;;;;;;;5.38;3.33;;;;;;;20.50;85.92;95911.94;4935978;28;24439;-73
2022/08/25 06:53:51;;;;;;;6.43;4.43;;;;;;;20.43;86.50;95904.78;4958701;28;24446;-73
2022/08/25 06:56:20;;;;;;;4.70;3.70;;;;;;;20.63;87.42;95902.84;4956431;28;25043;-73
2022/08/25 06:58:47;;;;;;;4.25;3.85;;;;;;;20.92;85.23;95905.16;4951030;28;24817;-75
2022/08/25 07:01:18;;;;;;;6.15;3.78;;;;;;;21.05;84.38;95899.44;4951333;28;24442;-74
2022/08/25 07:03:46;;;;;;;4.50;3.80;;;;;;;21.31;83.69;95899.38;4959324;28;24445;-74
2022/08/25 07:06:13;;;;;;;7.27;3.37;;;;;;;21.52;81.28;95893.72;4954621;28;24469;-74
2022/08/25 07:08:39;;;;;;;4.03;3.60;;;;;;;21.52;82.85;95889.28;4948913;28;24446;-75
2022/08/25 07:11:06;;;;;;;4.93;3.90;;;;;;;21.44;82.82;95894.53;4947268;29;24438;-74
2022/08/25 07:13:34;;;;;;;6.15;4.32;;;;;;;21.81;83.35;95896.75;4949389;28;24485;-75
2022/08/25 07:16:00;;;;;;;4.47;3.67;;;;;;;22.14;82.50;95892.34;4941333;28;24449;-74
2022/08/25 07:18:28;;;;;;;4.97;3.63;;;;;;;22.32;79.26;95888.69;4943187;28;25070;-74
2022/08/25 07:20:56;;;;;;;7.05;3.95;;;;;;;22.17;77.88;95892.03;4951318;28;24445;-74
2022/08/25 07:23:23;;;;;;;4.22;3.83;;;;;;;22.29;77.76;95876.69;4944421;28;24501;-74
2022/08/25 07:25:50;;;;;;;6.00;3.93;;;;;;;22.64;78.56;95882.56;4945534;29;24458;-74
2022/08/25 07:28:17;;;;;;;4.32;3.70;;;;;;;22.93;75.66;95877.56;4950983;28;24434;-74
2022/08/25 07:30:44;;;;;;;5.37;3.90;;;;;;;22.87;73.71;95872.91;4947746;28;24574;-74
2022/08/25 07:33:10;;;;;;;6.78;3.92;;;;;;;22.94;72.24;95881.84;4951593;28;24441;-74
2022/08/25 07:35:36;;;;;;;5.22;3.72;;;;;;;22.94;75.01;95873.09;4944757;28;24441;-74
2022/08/25 07:38:06;;;;;;;4.50;3.42;;;;;;;22.91;74.63;95883.97;4951019;28;24841;-74
2022/08/25 07:40:35;;;;;;;4.90;3.50;;;;;;;23.17;72.77;95876.63;4946084;28;24438;-75
2022/08/25 07:43:04;;;;;;;5.97;3.60;;;;;;;23.33;71.54;95872.31;4951583;28;24491;-74
2022/08/25 07:45:33;;;;;;;6.05;4.50;;;;;;;23.96;69.98;95876.56;4944136;28;25003;-74
2022/08/25 07:48:01;;;;;;;5.95;4.25;;;;;;;24.37;68.24;95868.28;4951067;29;24446;-74
2022/08/25 07:50:30;;;;;;;6.03;4.63;;;;;;;24.25;67.86;95872.34;4949599;28;24446;-75
2022/08/25 07:52:57;;;;;;;5.78;4.15;;;;;;;24.49;66.93;95874.81;4939959;29;24474;-76
2022/08/25 07:55:26;;;;;;;5.15;4.00;;;;;;;24.46;66.10;95877.00;4949729;28;24496;-76
2022/08/25 07:57:53;;;;;;;8.38;4.13;;;;;;;24.40;66.88;95878.56;4948650;29;24445;-76
2022/08/25 08:00:20;;;;;;;4.77;4.23;;;;;;;24.31;67.02;95876.94;4950370;28;24449;-75
2022/08/25 08:02:47;;;;;;;5.80;4.28;;;;;;;24.24;65.27;95870.72;4955175;29;24513;-75
2022/08/25 08:05:15;;;;;;;5.60;4.00;;;;;;;24.23;65.54;95875.19;4951107;28;24442;-75
2022/08/25 08:07:41;;;;;;;5.93;4.38;;;;;;;24.21;65.81;95879.81;4951356;28;24514;-76
2022/08/25 08:10:10;;;;;;;5.95;4.28;;;;;;;24.29;65.38;95884.25;4950106;29;24446;-76
2022/08/25 08:12:39;;;;;;;5.67;4.00;;;;;;;24.46;63.13;95877.81;4959902;28;24488;-76
2022/08/25 08:15:06;;;;;;;6.90;4.05;;;;;;;24.49;64.40;95881.94;4950976;28;24485;-70
2022/08/25 08:17:33;;;;;;;5.80;4.13;;;;;;;24.60;63.72;95879.66;4954034;28;24442;-76
2022/08/25 08:19:59;;;;;;;6.43;4.10;;;;;;;24.74;63.60;95887.81;4954044;28;24442;-76
2022/08/25 08:22:28;;;;;;;5.47;4.05;;;;;;;24.86;61.62;95884.53;4953452;28;24441;-76
2022/08/25 08:24:54;;;;;;;4.20;3.67;;;;;;;25.05;60.38;95887.66;4950908;28;24579;-76
2022/08/25 08:27:21;;;;;;;6.03;4.32;;;;;;;25.27;60.00;95888.56;4953454;28;24471;-76
2022/08/25 08:29:49;;;;;;;10.70;3.83;;;;;;;25.55;60.01;95889.53;4950891;28;24438;-76
2022/08/25 08:32:16;;;;;;;5.78;3.90;;;;;;;25.64;58.59;95890.25;4953920;28;24984;-76
2022/08/25 08:34:43;;;;;;;5.55;4.32;;;;;;;25.77;60.07;95881.59;4953887;28;25006;-76
2022/08/25 08:37:10;;;;;;;6.47;4.13;;;;;;;25.57;57.77;95884.03;4953414;28;24442;-76
2022/08/25 08:39:37;;;;;;;5.33;3.90;;;;;;;25.50;58.23;95881.31;4946130;28;24442;-76
2022/08/25 08:42:21;;;;;;;7.70;4.00;;;;;;;25.42;57.27;95883.25;4960681;28;24976;-76
2022/08/25 08:45:23;;;;;;;7.77;4.50;;;;;;;25.40;58.66;95888.75;4950548;28;24500;-76
2022/08/25 08:48:02;;;;;;;6.60;4.30;;;;;;;25.43;57.77;95891.00;4942838;29;24474;-77
2022/08/25 08:50:34;;;;;;;5.70;4.22;;;;;;;25.63;57.70;95887.78;4953179;28;24433;-76
2022/08/25 08:53:08;;;;;;;6.82;4.38;;;;;;;25.85;58.15;95886.84;4953972;28;24837;-75
2022/08/25 08:55:38;;;;;;;8.70;4.30;;;;;;;25.80;56.89;95887.38;4943358;28;24531;-75
2022/08/25 08:58:09;;;;;;;7.03;4.40;;;;;;;25.89;55.87;95880.13;4950307;28;24842;-75
2022/08/25 09:00:43;;;;;;;4.28;3.80;;;;;;;25.70;55.81;95884.19;4960442;28;24841;-75
2022/08/25 09:03:15;;;;;;;5.00;4.20;;;;;;;26.21;55.33;95876.13;4951996;28;24434;-75
2022/08/25 09:05:47;;;;;;;4.88;3.75;;;;;;;26.26;53.80;95873.75;4951656;29;24445;-75
2022/08/25 09:08:16;;;;;;;3.97;3.33;;;;;;;26.51;52.46;95876.00;4944527;28;25066;-75
2022/08/25 09:10:57;;;;;;;6.60;3.85;;;;;;;26.58;52.84;95874.22;4952142;29;24528;-75
2022/08/25 09:13:33;;;;;;;5.80;3.60;;;;;;;26.90;52.70;95872.78;4948313;28;24441;-76
2022/08/25 09:19:02;;;;;;;4.75;3.53;;;;;;;27.19;49.87;95866.44;4948116;29;24496;-75
2022/08/25 09:21:39;;;;;;;5.70;3.63;;;;;;;27.26;50.13;95863.81;4951535;28;24437;-75
2022/08/25 09:24:17;;;;;;;4.10;3.10;;;;;;;27.28;48.21;95867.09;4949933;29;24434;-76
2022/08/25 09:26:53;;;;;;;5.63;3.60;;;;;;;27.51;48.82;95864.09;4952748;28;24458;-74
2022/08/25 09:29:22;;;;;;;4.20;3.33;;;;;;;27.80;48.86;95856.84;4948483;29;24449;-76
2022/08/25 09:31:50;;;;;;;6.75;3.70;;;;;;;27.73;47.85;95859.47;4951911;28;24438;-75
2022/08/25 09:34:20;;;;;;;6.38;3.90;;;;;;;27.19;48.57;95847.00;4948257;29;24516;-75
2022/08/25 09:36:49;;;;;;;5.17;3.70;;;;;;;27.19;48.35;95847.84;4948956;28;24442;-74
2022/08/25 09:39:17;;;;;;;5.47;3.10;;;;;;;27.16;47.56;95852.72;4954745;28;24438;-76
2022/08/25 09:41:48;;;;;;;5.30;3.17;;;;;;;27.17;48.10;95851.69;4950049;28;24438;-75
2022/08/25 09:44:20;;;;;;;3.80;2.93;;;;;;;27.28;47.49;95845.81;4963161;28;24513;-74
2022/08/25 09:47:03;;;;;;;5.35;3.30;;;;;;;27.28;45.86;95843.16;4946250;29;25035;-76
2022/08/25 09:49:39;;;;;;;3.42;3.13;;;;;;;27.32;46.95;95848.91;4950001;29;24445;-76
2022/08/25 09:52:26;;;;;;;3.28;2.83;;;;;;;27.64;44.82;95842.06;4948721;28;24436;-76
2022/08/25 09:54:54;;;;;;;5.22;3.50;;;;;;;27.60;45.46;95846.94;4946123;29;24866;-76
2022/08/25 09:57:33;;;;;;;3.25;2.95;;;;;;;27.93;45.18;95841.72;4948254;28;24441;-75
2022/08/25 10:00:18;;;;;;;4.47;2.95;;;;;;;27.74;42.98;95846.00;4952663;28;24438;-76
2022/08/25 10:03:02;;;;;;;4.47;3.25;;;;;;;27.80;44.63;95843.53;4948658;29;24521;-76
2022/08/25 10:05:33;;;;;;;3.90;2.83;;;;;;;27.61;44.61;95839.78;4957376;28;24445;-76
2022/08/25 10:08:03;;;;;;;5.07;3.30;;;;;;;27.64;43.61;95834.06;4942743;28;24503;-76
2022/08/25 10:10:33;;;;;;;4.95;3.20;;;;;;;27.70;46.25;95828.78;4950908;28;24443;-75
2022/08/25 10:13:02;;;;;;;7.20;2.90;;;;;;;27.47;44.69;95826.44;4944359;28;25070;-77
2022/08/25 10:15:31;;;;;;;6.20;3.58;;;;;;;27.59;47.26;95825.84;4950778;28;24457;-76
2022/08/25 10:18:19;;;;;;;4.38;3.00;;;;;;;27.76;46.42;95831.66;4948587;28;24473;-76
2022/08/25 10:21:01;;;;;;;4.10;3.15;;;;;;;27.72;44.09;95823.22;4953557;28;24975;-76
2022/08/25 10:23:28;;;;;;;4.90;3.00;;;;;;;27.77;43.03;95817.31;4948700;28;24503;-77
2022/08/25 10:25:55;;;;;;;4.30;2.90;;;;;;;27.48;44.23;95816.66;4952537;28;24441;-76
2022/08/25 10:28:30;;;;;;;8.33;3.17;;;;;;;27.84;44.90;95818.16;4948768;28;24550;-75
2022/08/25 10:31:09;;;;;;;4.15;2.80;;;;;;;28.16;43.32;95813.88;4952125;28;24441;-75
2022/08/25 10:33:50;;;;;;;4.55;3.05;;;;;;;28.02;43.07;95814.91;4950769;29;24990;-76
2022/08/25 10:36:22;;;;;;;5.60;2.72;;;;;;;27.81;43.13;95810.56;4950959;28;21288;-75
2022/08/25 10:38:54;;;;;;;3.60;2.80;;;;;;;27.99;43.22;95800.97;4950014;29;24457;-75
2022/08/25 10:41:38;;;;;;;6.35;3.03;;;;;;;28.30;44.11;95804.06;4952266;28;24449;-75
2022/08/25 10:47:11;;;;;;;4.25;2.78;;;;;;;28.37;43.73;95796.88;4943949;29;24462;-75
2022/08/25 10:49:46;;;;;;;4.70;3.10;;;;;;;28.52;42.41;95800.16;4949069;28;24441;-75
2022/08/25 10:52:19;;;;;;;4.25;2.88;;;;;;;28.65;41.93;95793.97;4950831;28;24841;-75
2022/08/25 10:54:53;;;;;;;4.18;2.85;;;;;;;28.65;42.40;95793.97;4941482;28;24446;-75
2022/08/25 10:57:28;;;;;;;5.75;3.22;;;;;;;28.44;43.79;95787.03;4942635;28;24657;-75
2022/08/25 11:00:03;;;;;;;5.10;3.40;;;;;;;28.63;43.90;95785.41;4945830;28;24437;-78
2022/08/25 11:02:59;;;;;;;3.85;3.05;;;;;;;28.74;43.30;95782.09;4949733;29;24457;-76
2022/08/25 11:05:32;;;;;;;3.63;3.23;;;;;;;28.52;44.78;95784.19;4946585;28;24995;-76
2022/08/25 11:08:06;;;;;;;4.70;2.80;;;;;;;28.44;43.26;95773.72;4954622;28;24976;-75
2022/08/25 11:10:40;;;;;;;5.13;2.95;;;;;;;28.65;41.95;95762.00;4950636;28;24441;-75
2022/08/25 11:13:12;;;;;;;5.43;3.10;;;;;;;28.89;41.07;95769.31;4952045;28;24489;-76
2022/08/25 11:15:49;;;;;;;5.22;3.10;;;;;;;28.87;42.50;95763.38;4951301;28;24516;-76
2022/08/25 11:18:15;;;;;;;5.15;3.10;;;;;;;28.60;41.58;95765.31;4946779;28;24449;-75
2022/08/25 11:20:49;;;;;;;7.38;3.15;;;;;;;28.41;41.55;95761.66;4946862;28;24438;-75
2022/08/25 11:23:21;;;;;;;3.78;2.80;;;;;;;28.12;42.05;95757.56;4946890;28;24449;-76
2022/08/25 11:25:51;;;;;;;4.38;3.08;;;;;;;27.90;43.11;95759.63;4943418;28;24438;-75
2022/08/25 11:28:26;;;;;;;6.72;2.70;;;;;;;28.39;43.19;95761.03;4956927;28;24993;-76
2022/08/25 11:30:55;;;;;;;3.25;2.53;;;;;;;28.81;42.16;95766.91;4954483;28;24422;-75
2022/08/25 11:33:25;;;;;;;3.38;2.50;;;;;;;28.28;41.07;95758.97;4949039;28;24502;-76
2022/08/25 11:35:57;;;;;;;4.75;2.40;;;;;;;28.29;41.99;95760.59;4950751;28;24439;-76
2022/08/25 11:38:43;;;;;;;2.85;2.47;;;;;;;28.49;41.97;95760.63;4959908;28;24699;-75
2022/08/25 11:41:21;;;;;;;3.42;2.17;;;;;;;28.83;40.13;95758.69;4953882;28;24897;-75
2022/08/25 11:44:11;;;;;;;5.47;2.40;;;;;;;29.21;40.86;95763.25;4945100;28;24475;-76
2022/08/25 11:46:52;;;;;;;2.78;2.40;;;;;;;28.45;40.47;95760.22;4954033;28;24438;-76
2022/08/25 11:49:40;;;;;;;4.07;2.75;;;;;;;28.41;41.41;95750.19;4951663;28;24579;-76
2022/08/25 11:52:41;;;;;;;2.83;2.60;;;;;;;28.67;41.64;95752.78;4952198;28;24445;-75
2022/08/25 11:55:12;;;;;;;3.03;2.45;;;;;;;28.30;40.66;95748.94;4943624;28;24529;-75